createdAt,value
2018-06-13T00:01:06.548Z,89.30
2018-06-13T00:06:01.542Z,89.10
2018-06-13T00:08:29.273Z,88.50
2018-06-13T00:10:56.765Z,88.30
2018-06-13T00:13:24.279Z,88.00
2018-06-13T00:15:51.781Z,88.60
2018-06-13T00:18:19.301Z,88.00
2018-06-13T00:20:46.792Z,87.60
2018-06-13T00:23:14.325Z,88.40
2018-06-13T00:25:41.817Z,87.70
2018-06-13T00:28:09.353Z,87.10
2018-06-13T00:30:36.867Z,87.20
2018-06-13T00:35:38.482Z,87.60
2018-06-13T00:38:06.047Z,87.60
2018-06-13T00:40:33.621Z,86.60
2018-06-13T00:43:01.225Z,85.80
2018-06-13T00:45:28.723Z,85.80
2018-06-13T00:47:56.253Z,86.00
2018-06-13T00:50:23.766Z,86.40
2018-06-13T00:52:51.301Z,87.30
2018-06-13T00:55:18.974Z,87.40
2018-06-13T00:57:46.541Z,87.70
2018-06-13T01:00:14.065Z,86.80
2018-06-13T01:02:41.624Z,87.10
2018-06-13T01:05:09.131Z,88.50
2018-06-13T01:07:36.680Z,87.80
2018-06-13T01:10:04.305Z,86.90
2018-06-13T01:12:31.821Z,87.00
2018-06-13T01:14:59.338Z,86.20
2018-06-13T01:17:26.849Z,86.20
2018-06-13T01:19:54.396Z,86.50
2018-06-13T01:22:21.889Z,86.70
2018-06-13T01:24:49.413Z,87.00
2018-06-13T01:27:16.934Z,86.10
2018-06-13T01:29:44.455Z,86.60
2018-06-13T01:32:12.002Z,86.80
2018-06-13T01:34:39.784Z,86.50
2018-06-13T01:37:07.286Z,86.40
2018-06-13T01:39:34.858Z,87.00
2018-06-13T01:42:02.398Z,86.80
2018-06-13T01:44:29.932Z,87.10
2018-06-13T01:46:57.451Z,87.70
2018-06-13T01:49:25.043Z,87.00
2018-06-13T01:51:52.538Z,87.20
2018-06-13T01:54:20.105Z,87.50
2018-06-13T01:56:47.627Z,87.60
2018-06-13T01:59:15.213Z,87.30
2018-06-13T02:04:17.060Z,87.10
2018-06-13T02:06:44.574Z,87.50
2018-06-13T02:09:12.080Z,87.90
2018-06-13T02:11:39.580Z,87.80
2018-06-13T02:14:07.065Z,88.30
2018-06-13T02:16:34.597Z,87.70
2018-06-13T02:19:02.149Z,87.30
2018-06-13T02:21:29.669Z,87.10
2018-06-13T02:23:57.177Z,87.40
2018-06-13T02:26:24.684Z,87.10
2018-06-13T02:28:52.280Z,86.90
2018-06-13T02:31:19.801Z,87.10
2018-06-13T02:33:47.289Z,86.90
2018-06-13T02:38:42.226Z,87.50
2018-06-13T02:41:09.761Z,87.70
2018-06-13T02:43:37.270Z,87.20
2018-06-13T02:46:04.825Z,87.30
2018-06-13T02:48:32.319Z,87.20
2018-06-13T02:53:27.413Z,87.80
2018-06-13T02:55:54.925Z,87.70
2018-06-13T02:58:22.416Z,87.70
2018-06-13T03:00:49.951Z,87.60
2018-06-13T03:03:17.474Z,87.20
2018-06-13T03:05:45.018Z,87.10
2018-06-13T03:08:12.559Z,87.20
2018-06-13T03:10:40.086Z,87.90
2018-06-13T03:13:07.565Z,88.30
2018-06-13T03:15:41.906Z,87.80
2018-06-13T03:18:09.521Z,87.40
2018-06-13T03:20:37.005Z,87.40
2018-06-13T03:23:04.577Z,87.40
2018-06-13T03:25:32.094Z,87.50
2018-06-13T03:27:59.594Z,87.30
2018-06-13T03:30:27.115Z,87.60
2018-06-13T03:32:54.648Z,88.20
2018-06-13T03:35:22.153Z,88.10
2018-06-13T03:37:49.694Z,88.40
2018-06-13T03:40:17.215Z,88.70
2018-06-13T03:42:45.293Z,88.50
2018-06-13T03:47:40.313Z,89.20
2018-06-13T03:50:08.503Z,88.90
2018-06-13T03:52:36.021Z,89.70
2018-06-13T03:55:03.605Z,90.00
2018-06-13T03:57:31.122Z,89.70
2018-06-13T03:59:58.637Z,89.40
2018-06-13T04:02:26.161Z,89.60
2018-06-13T04:04:53.701Z,89.40
2018-06-13T04:07:21.235Z,89.40
2018-06-13T04:09:48.740Z,89.50
2018-06-13T04:12:16.249Z,89.50
2018-06-13T04:14:43.772Z,89.90
2018-06-13T04:17:11.303Z,89.70
2018-06-13T04:19:39.741Z,89.60
2018-06-13T04:22:07.430Z,89.90
2018-06-13T04:24:34.945Z,90.00
2018-06-13T04:27:02.570Z,90.10
2018-06-13T04:31:57.537Z,90.00
2018-06-13T04:36:59.209Z,90.30
2018-06-13T04:39:26.747Z,90.00
2018-06-13T04:41:54.328Z,90.10
2018-06-13T04:44:21.857Z,90.00
2018-06-13T04:46:49.369Z,90.00
2018-06-13T04:49:16.925Z,90.10
2018-06-13T04:51:44.446Z,89.80
2018-06-13T04:54:11.984Z,90.00
2018-06-13T04:56:39.498Z,90.10
2018-06-13T04:59:07.016Z,89.50
2018-06-13T05:01:34.521Z,89.20
2018-06-13T05:04:02.053Z,89.50
2018-06-13T05:06:29.564Z,89.00
2018-06-13T05:08:57.076Z,88.10
2018-06-13T05:11:24.608Z,88.70
2018-06-13T05:13:52.124Z,88.80
2018-06-13T05:16:19.654Z,87.80
2018-06-13T05:18:47.173Z,87.40
2018-06-13T05:21:14.678Z,87.70
2018-06-13T05:23:42.209Z,88.20
2018-06-13T05:26:09.721Z,87.60
2018-06-13T05:28:37.260Z,86.10
2018-06-13T05:31:04.778Z,87.30
2018-06-13T05:33:32.286Z,87.20
2018-06-13T05:35:59.812Z,86.70
2018-06-13T05:38:27.365Z,87.30
2018-06-13T05:40:54.891Z,86.40
2018-06-13T05:43:22.394Z,86.70
2018-06-13T05:45:49.939Z,85.70
2018-06-13T05:48:17.452Z,85.80
2018-06-13T05:50:44.991Z,85.80
2018-06-13T05:53:12.514Z,86.30
2018-06-13T05:55:40.046Z,85.40
2018-06-13T05:58:07.569Z,84.90
2018-06-13T06:00:35.129Z,85.60
2018-06-13T06:03:02.681Z,86.10
2018-06-13T06:05:30.210Z,86.20
2018-06-13T06:07:57.710Z,83.90
2018-06-13T06:10:25.243Z,84.10
2018-06-13T06:12:52.750Z,83.70
2018-06-13T06:15:20.241Z,83.80
2018-06-13T06:17:47.804Z,84.10
2018-06-13T06:20:15.295Z,82.90
2018-06-13T06:22:42.825Z,83.10
2018-06-13T06:25:10.366Z,83.30
2018-06-13T06:27:37.895Z,82.20
2018-06-13T06:30:05.469Z,81.50
2018-06-13T06:32:33.003Z,82.00
2018-06-13T06:35:00.752Z,80.80
2018-06-13T06:37:28.285Z,79.80
2018-06-13T06:39:55.809Z,80.20
2018-06-13T06:42:23.358Z,81.20
2018-06-13T06:44:50.896Z,82.20
2018-06-13T06:47:18.423Z,82.30
2018-06-13T06:49:45.989Z,82.90
2018-06-13T06:52:13.465Z,83.10
2018-06-13T06:54:40.969Z,82.60
2018-06-13T06:57:08.521Z,81.70
2018-06-13T06:59:36.057Z,80.00
2018-06-13T07:02:03.597Z,79.80
2018-06-13T07:04:31.112Z,78.40
2018-06-13T07:06:58.609Z,78.10
2018-06-13T07:09:26.190Z,77.70
2018-06-13T07:11:53.714Z,78.20
2018-06-13T07:14:21.243Z,78.60
2018-06-13T07:16:48.762Z,78.50
2018-06-13T07:19:16.285Z,78.90
2018-06-13T07:21:43.797Z,78.40
2018-06-13T07:24:11.335Z,77.10
2018-06-13T07:26:38.907Z,76.30
2018-06-13T07:29:06.426Z,77.60
2018-06-13T07:31:33.921Z,77.50
2018-06-13T07:34:01.487Z,77.20
2018-06-13T07:36:29.004Z,77.20
2018-06-13T07:41:24.002Z,75.40
2018-06-13T07:43:51.514Z,76.10
2018-06-13T07:46:19.072Z,75.90
2018-06-13T07:48:47.235Z,71.50
2018-06-13T07:51:14.767Z,69.30
2018-06-13T07:53:42.277Z,69.70
2018-06-13T07:56:09.886Z,70.60
2018-06-13T08:01:04.849Z,71.30
2018-06-13T08:03:32.356Z,68.90
2018-06-13T08:05:59.897Z,69.40
2018-06-13T08:08:27.420Z,68.90
2018-06-13T08:10:54.981Z,67.90
2018-06-13T08:13:22.576Z,67.80
2018-06-13T08:15:50.174Z,68.50
2018-06-13T08:18:17.697Z,68.80
2018-06-13T08:20:45.223Z,70.50
2018-06-13T08:23:12.756Z,70.80
2018-06-13T08:25:40.273Z,70.90
2018-06-13T08:28:14.406Z,71.10
2018-06-13T08:30:41.963Z,71.70
2018-06-13T08:33:09.517Z,71.40
2018-06-13T08:35:37.065Z,72.30
2018-06-13T08:38:04.673Z,71.70
2018-06-13T08:40:32.230Z,71.30
2018-06-13T08:42:59.801Z,71.70
2018-06-13T08:45:27.342Z,71.70
2018-06-13T08:47:54.857Z,69.70
2018-06-13T08:50:22.357Z,68.90
2018-06-13T08:52:49.880Z,68.60
2018-06-13T08:55:17.398Z,69.90
2018-06-13T08:57:44.933Z,70.00
2018-06-13T09:00:12.453Z,68.60
2018-06-13T09:02:39.990Z,69.80
2018-06-13T09:05:07.517Z,69.80
2018-06-13T09:07:35.034Z,70.10
2018-06-13T09:10:02.577Z,68.20
2018-06-13T09:12:30.131Z,68.40
2018-06-13T09:14:57.677Z,67.90
2018-06-13T09:17:25.173Z,69.30
2018-06-13T09:19:52.689Z,70.30
2018-06-13T09:22:20.236Z,69.50
2018-06-13T09:24:47.737Z,69.90
2018-06-13T09:27:15.279Z,70.90
2018-06-13T09:29:42.805Z,70.60
2018-06-13T09:32:10.329Z,72.00
2018-06-13T09:34:37.818Z,71.70
2018-06-13T09:37:05.386Z,71.00
2018-06-13T09:39:32.886Z,71.60
2018-06-13T09:42:00.415Z,71.00
2018-06-13T09:44:28.545Z,70.20
2018-06-13T09:46:56.052Z,70.40
2018-06-13T09:49:23.630Z,68.40
2018-06-13T09:51:51.146Z,69.10
2018-06-13T09:54:18.679Z,66.20
2018-06-13T09:56:46.340Z,67.00
2018-06-13T09:59:17.499Z,63.90
2018-06-13T10:01:48.166Z,64.10
2018-06-13T10:04:15.680Z,65.30
2018-06-13T10:06:43.201Z,65.30
2018-06-13T10:11:38.213Z,67.60
2018-06-13T10:14:05.841Z,67.70
2018-06-13T10:16:33.374Z,68.50
2018-06-13T10:19:00.905Z,70.20
2018-06-13T10:21:28.692Z,70.80
2018-06-13T10:23:56.379Z,70.40
2018-06-13T10:26:24.374Z,65.60
2018-06-13T10:28:51.988Z,69.50
2018-06-13T10:31:19.483Z,68.50
2018-06-13T10:33:47.046Z,67.50
2018-06-13T10:36:14.601Z,68.40
2018-06-13T10:38:42.184Z,65.40
2018-06-13T10:41:09.752Z,65.90
2018-06-13T10:43:37.301Z,66.00
2018-06-13T10:46:04.864Z,66.10
2018-06-13T10:48:32.426Z,65.90
2018-06-13T10:51:00.114Z,64.20
2018-06-13T10:53:28.052Z,64.60
2018-06-13T10:55:55.661Z,64.40
2018-06-13T10:58:23.217Z,65.60
2018-06-13T11:00:50.768Z,64.50
2018-06-13T11:03:18.293Z,63.80
2018-06-13T11:05:45.817Z,63.80
2018-06-13T11:08:13.354Z,64.30
2018-06-13T11:10:40.912Z,64.60
2018-06-13T11:13:08.437Z,64.30
2018-06-13T11:15:35.955Z,65.00
2018-06-13T11:18:03.534Z,64.60
2018-06-13T11:20:31.189Z,64.50
2018-06-13T11:22:58.710Z,63.80
2018-06-13T11:25:26.241Z,60.00
2018-06-13T11:27:53.765Z,62.80
2018-06-13T11:30:21.261Z,60.90
2018-06-13T11:32:48.817Z,62.40
2018-06-13T11:35:16.396Z,62.70
2018-06-13T11:37:43.977Z,63.90
2018-06-13T11:40:11.491Z,61.40
2018-06-13T11:42:39.030Z,62.50
2018-06-13T11:45:06.634Z,63.80
2018-06-13T11:47:34.194Z,61.60
2018-06-13T11:50:01.702Z,62.90
2018-06-13T11:52:29.264Z,62.30
2018-06-13T11:54:56.771Z,60.30
2018-06-13T11:57:24.313Z,59.20
2018-06-13T11:59:51.891Z,58.60
2018-06-13T12:02:19.414Z,59.10
2018-06-13T12:04:46.914Z,59.30
2018-06-13T12:07:14.457Z,58.70
2018-06-13T12:09:41.981Z,59.90
2018-06-13T12:12:10.324Z,59.20
2018-06-13T12:14:37.858Z,59.30
2018-06-13T12:17:05.454Z,58.60
2018-06-13T12:19:32.999Z,58.80
2018-06-13T12:22:00.517Z,60.00
2018-06-13T12:24:28.204Z,58.90
2018-06-13T12:26:55.794Z,58.30
2018-06-13T12:29:23.361Z,60.20
2018-06-13T12:31:51.561Z,59.10
2018-06-13T12:34:19.415Z,58.50
2018-06-13T12:36:46.900Z,60.20
2018-06-13T12:39:14.441Z,58.90
2018-06-13T12:41:41.965Z,58.50
2018-06-13T12:44:09.505Z,56.90
2018-06-13T12:46:37.121Z,56.20
2018-06-13T12:49:04.831Z,55.90
2018-06-13T12:51:32.349Z,54.80
2018-06-13T12:54:00.419Z,55.70
2018-06-13T12:56:27.967Z,54.60
2018-06-13T12:58:55.654Z,53.10
2018-06-13T13:01:23.154Z,54.20
2018-06-13T13:03:50.685Z,54.30
2018-06-13T13:06:18.397Z,53.10
2018-06-13T13:08:45.913Z,56.40
2018-06-13T13:11:13.511Z,54.70
2018-06-13T13:13:40.984Z,55.80
2018-06-13T13:16:08.521Z,54.80
2018-06-13T13:18:36.070Z,54.60
2018-06-13T13:21:03.662Z,53.00
2018-06-13T13:23:31.169Z,52.30
2018-06-13T13:26:05.308Z,53.30
2018-06-13T13:31:00.468Z,53.40
2018-06-13T13:33:27.978Z,53.50
2018-06-13T13:35:55.619Z,52.70
2018-06-13T13:38:23.100Z,54.40
2018-06-13T13:40:50.650Z,55.40
2018-06-13T13:43:18.178Z,55.00
2018-06-13T13:45:45.796Z,54.90
2018-06-13T13:48:13.558Z,54.70
2018-06-13T13:50:41.116Z,54.80
2018-06-13T13:53:08.709Z,53.50
2018-06-13T13:55:36.236Z,54.50
2018-06-13T13:58:03.965Z,53.90
2018-06-13T14:00:31.479Z,52.20
2018-06-13T14:02:58.989Z,52.00
2018-06-13T14:05:26.553Z,52.90
2018-06-13T14:07:54.119Z,52.40
2018-06-13T14:10:21.662Z,53.00
2018-06-13T14:12:49.270Z,52.80
2018-06-13T14:15:16.790Z,53.60
2018-06-13T14:17:44.315Z,52.50
2018-06-13T14:20:11.865Z,53.60
2018-06-13T14:22:39.477Z,52.40
2018-06-13T14:25:06.969Z,51.80
2018-06-13T14:27:34.517Z,51.70
2018-06-13T14:30:02.135Z,52.00
2018-06-13T14:32:29.657Z,51.70
2018-06-13T14:34:57.249Z,52.30
2018-06-13T14:37:24.868Z,53.40
2018-06-13T14:39:52.373Z,52.00
2018-06-13T14:42:19.947Z,51.80
2018-06-13T14:44:47.530Z,51.60
2018-06-13T14:47:15.066Z,50.00
2018-06-13T14:49:42.581Z,51.00
2018-06-13T14:52:10.146Z,50.10
2018-06-13T14:54:37.653Z,52.10
2018-06-13T14:57:05.356Z,52.20
2018-06-13T14:59:32.892Z,52.50
2018-06-13T15:02:00.493Z,52.70
2018-06-13T15:04:31.979Z,54.00
2018-06-13T15:06:59.550Z,54.20
2018-06-13T15:09:27.074Z,52.10
2018-06-13T15:14:22.068Z,48.50
2018-06-13T15:16:49.601Z,49.60
2018-06-13T15:19:17.377Z,49.60
2018-06-13T15:21:44.901Z,48.70
2018-06-13T15:24:12.531Z,49.20
2018-06-13T15:26:40.097Z,50.70
2018-06-13T15:29:07.648Z,50.90
2018-06-13T15:34:02.691Z,50.10
2018-06-13T15:36:30.272Z,50.00
2018-06-13T15:38:57.811Z,50.20
2018-06-13T15:41:25.403Z,48.70
2018-06-13T15:43:52.976Z,49.90
2018-06-13T15:46:21.077Z,49.00
2018-06-13T15:48:48.632Z,47.20
2018-06-13T15:51:16.189Z,49.20
2018-06-13T15:53:50.390Z,49.60
2018-06-13T15:56:17.911Z,49.80
2018-06-13T15:58:45.494Z,50.90
2018-06-13T16:01:13.087Z,52.90
2018-06-13T16:03:40.698Z,52.90
2018-06-13T16:06:08.442Z,53.00
2018-06-13T16:08:36.194Z,53.00
2018-06-13T16:11:03.732Z,53.80
2018-06-13T16:13:31.241Z,54.40
2018-06-13T16:15:58.790Z,55.00
2018-06-13T16:18:26.374Z,54.00
2018-06-13T16:20:53.928Z,54.50
2018-06-13T16:23:21.459Z,54.10
2018-06-13T16:25:48.985Z,53.80
2018-06-13T16:28:16.545Z,54.90
2018-06-13T16:30:44.057Z,55.00
2018-06-13T16:33:11.621Z,55.60
2018-06-13T16:35:39.189Z,54.60
2018-06-13T16:38:06.816Z,54.80
2018-06-13T16:40:34.377Z,55.60
2018-06-13T16:43:01.904Z,54.80
2018-06-13T16:45:29.697Z,54.50
2018-06-13T16:47:57.476Z,52.90
2018-06-13T16:50:36.298Z,53.50
2018-06-13T16:53:08.970Z,54.50
2018-06-13T16:55:36.561Z,52.50
2018-06-13T16:58:04.221Z,53.20
2018-06-13T17:00:31.764Z,54.20
2018-06-13T17:02:59.322Z,54.70
2018-06-13T17:05:26.933Z,54.70
2018-06-13T17:07:54.453Z,55.90
2018-06-13T17:10:21.955Z,55.20
2018-06-13T17:12:49.514Z,56.30
2018-06-13T17:15:17.037Z,55.20
2018-06-13T17:17:51.242Z,56.00
2018-06-13T17:20:18.749Z,55.40
2018-06-13T17:22:46.536Z,56.40
2018-06-13T17:25:14.046Z,55.20
2018-06-13T17:30:09.393Z,55.70
2018-06-13T17:32:37.002Z,56.00
2018-06-13T17:35:05.090Z,56.40
2018-06-13T17:37:33.007Z,56.50
2018-06-13T17:40:00.551Z,57.00
2018-06-13T17:42:28.158Z,57.10
2018-06-13T17:44:55.891Z,56.70
2018-06-13T17:47:23.498Z,56.90
2018-06-13T17:49:51.333Z,56.90
2018-06-13T17:52:18.891Z,56.60
2018-06-13T17:54:46.440Z,55.60
2018-06-13T17:57:14.315Z,56.40
2018-06-13T17:59:41.843Z,56.70
2018-06-13T18:02:09.503Z,56.00
2018-06-13T18:04:37.335Z,56.50
2018-06-13T18:07:04.954Z,57.10
2018-06-13T18:09:32.817Z,56.50
2018-06-13T18:12:00.599Z,57.50
2018-06-13T18:14:28.429Z,57.10
2018-06-13T18:16:56.233Z,57.20
2018-06-13T18:19:23.916Z,57.30
2018-06-13T18:21:51.786Z,58.10
2018-06-13T18:24:19.482Z,57.30
2018-06-13T18:26:47.161Z,56.20
2018-06-13T18:29:14.879Z,56.40
2018-06-13T18:31:43.404Z,56.10
2018-06-13T18:34:11.201Z,56.20
2018-06-13T18:36:38.753Z,56.40
2018-06-13T18:39:08.418Z,55.50
2018-06-13T18:41:36.281Z,55.00
2018-06-13T18:44:04.018Z,55.80
2018-06-13T18:48:59.269Z,59.10
2018-06-13T18:51:26.868Z,56.50
2018-06-13T18:53:54.433Z,54.60
2018-06-13T18:56:28.584Z,53.20
2018-06-13T18:58:56.266Z,56.20
2018-06-13T19:01:24.434Z,54.50
2018-06-13T19:03:52.072Z,53.40
2018-06-13T19:06:19.637Z,53.90
2018-06-13T19:08:47.234Z,57.40
2018-06-13T19:11:14.896Z,57.30
2018-06-13T19:13:42.408Z,56.80
2018-06-13T19:16:10.057Z,56.50
2018-06-13T19:18:37.633Z,57.40
2018-06-13T19:21:05.520Z,57.00
2018-06-13T19:23:33.082Z,57.00
2018-06-13T19:26:00.677Z,56.10
2018-06-13T19:28:28.303Z,57.20
2018-06-13T19:30:56.134Z,58.50
2018-06-13T19:33:23.775Z,57.50
2018-06-13T19:35:51.350Z,57.20
2018-06-13T19:38:19.000Z,57.10
2018-06-13T19:40:46.538Z,58.30
2018-06-13T19:43:19.773Z,59.10
2018-06-13T19:45:47.333Z,62.10
2018-06-13T19:48:20.691Z,62.60
2018-06-13T19:50:48.329Z,63.80
2018-06-13T19:53:21.608Z,64.60
2018-06-13T19:55:54.722Z,65.80
2018-06-13T19:58:22.517Z,65.10
2018-06-13T20:00:50.042Z,62.90
2018-06-13T20:03:23.259Z,65.00
2018-06-13T20:05:50.877Z,66.20
2018-06-13T20:08:18.389Z,64.60
2018-06-13T20:10:45.897Z,63.20
2018-06-13T20:13:18.998Z,64.90
2018-06-13T20:15:52.586Z,65.00
2018-06-13T20:18:25.777Z,66.40
2018-06-13T20:20:54.974Z,65.80
2018-06-13T20:23:22.529Z,66.70
2018-06-13T20:25:55.753Z,67.30
2018-06-13T20:28:28.855Z,66.90
2018-06-13T20:31:02.007Z,66.90
2018-06-13T20:33:29.571Z,67.70
2018-06-13T20:35:57.069Z,68.00
2018-06-13T20:38:24.580Z,67.40
2018-06-13T20:40:52.081Z,67.90
2018-06-13T20:43:19.673Z,68.80
2018-06-13T20:45:47.177Z,69.40
2018-06-13T20:48:14.712Z,70.10
2018-06-13T20:50:42.267Z,70.90
2018-06-13T20:53:09.783Z,70.30
2018-06-13T20:55:37.390Z,71.50
2018-06-13T20:58:04.996Z,72.70
2018-06-13T21:00:32.528Z,73.40
2018-06-13T21:03:00.167Z,73.50
2018-06-13T21:05:27.773Z,74.20
2018-06-13T21:07:55.701Z,75.10
2018-06-13T21:10:23.247Z,75.10
2018-06-13T21:12:50.757Z,75.80
2018-06-13T21:15:18.286Z,76.10
2018-06-13T21:17:45.825Z,76.90
2018-06-13T21:20:13.444Z,77.60
2018-06-13T21:22:40.969Z,77.40
2018-06-13T21:25:08.531Z,77.90
2018-06-13T21:27:36.073Z,77.60
2018-06-13T21:30:04.157Z,77.80
2018-06-13T21:32:31.691Z,77.90
2018-06-13T21:34:59.292Z,78.40
2018-06-13T21:37:26.798Z,79.10
2018-06-13T21:39:54.353Z,79.40
2018-06-13T21:42:21.945Z,80.30
2018-06-13T21:44:49.597Z,80.60
2018-06-13T21:47:17.428Z,80.50
2018-06-13T21:49:44.993Z,80.50
2018-06-13T21:52:12.574Z,80.70
2018-06-13T21:54:40.096Z,80.50
2018-06-13T21:57:07.633Z,81.10
2018-06-13T22:02:02.712Z,81.70
2018-06-13T22:04:30.227Z,81.50
2018-06-13T22:06:57.802Z,81.80
2018-06-13T22:09:25.319Z,81.70
2018-06-13T22:11:53.997Z,81.60
2018-06-13T22:14:23.257Z,81.10
2018-06-13T22:16:51.509Z,81.70
2018-06-13T22:19:19.457Z,81.50
2018-06-13T22:21:47.153Z,81.70
2018-06-13T22:24:14.683Z,82.20
2018-06-13T22:26:42.298Z,82.00
2018-06-13T22:29:09.809Z,82.10
2018-06-13T22:31:37.448Z,82.40
2018-06-13T22:34:04.942Z,82.40
2018-06-13T22:36:32.452Z,82.30
2018-06-13T22:38:59.989Z,82.90
2018-06-13T22:41:27.496Z,82.80
2018-06-13T22:43:55.038Z,83.30
2018-06-13T22:46:22.599Z,83.80
2018-06-13T22:48:50.225Z,83.80
2018-06-13T22:51:17.783Z,84.00
2018-06-13T22:53:45.344Z,83.90
2018-06-13T22:56:12.870Z,84.30
2018-06-13T22:58:40.404Z,84.50
2018-06-13T23:01:09.159Z,84.80
2018-06-13T23:03:36.706Z,85.10
2018-06-13T23:06:06.370Z,85.20
2018-06-13T23:08:34.709Z,85.50
2018-06-13T23:11:02.254Z,85.70
2018-06-13T23:13:29.952Z,85.70
2018-06-13T23:15:57.474Z,85.30
2018-06-13T23:18:26.032Z,85.00
2018-06-13T23:20:53.517Z,84.80
2018-06-13T23:23:21.662Z,84.40
2018-06-13T23:25:49.521Z,84.50
2018-06-13T23:28:17.073Z,85.20
2018-06-13T23:30:44.574Z,85.40
2018-06-13T23:33:12.130Z,85.40
2018-06-13T23:35:39.629Z,84.80
2018-06-13T23:38:07.133Z,83.50
2018-06-13T23:40:35.105Z,83.30
2018-06-13T23:43:02.809Z,83.90
2018-06-13T23:45:30.506Z,84.40
2018-06-13T23:47:57.996Z,85.40
2018-06-13T23:50:25.533Z,85.90
2018-06-13T23:52:53.041Z,86.50
2018-06-13T23:55:20.640Z,86.20
2018-06-13T23:57:48.148Z,86.60
